sensor_id;sensor_type;location;lat;lon;timestamp;temperature;humidity
32502;DHT22;18952;52.516;13.460;2022-07-21T00:01:16;26.40;51.60
32502;DHT22;18952;52.516;13.460;2022-07-21T00:03:48;26.30;51.90
32502;DHT22;18952;52.516;13.460;2022-07-21T00:06:22;26.30;51.80
32502;DHT22;18952;52.516;13.460;2022-07-21T00:08:53;26.30;51.80
32502;DHT22;18952;52.516;13.460;2022-07-21T00:11:25;26.30;51.90
32502;DHT22;18952;52.516;13.460;2022-07-21T00:13:54;26.20;52.00
32502;DHT22;18952;52.516;13.460;2022-07-21T00:16:22;26.20;52.10
32502;DHT22;18952;52.516;13.460;2022-07-21T00:18:50;26.20;52.00
32502;DHT22;18952;52.516;13.460;2022-07-21T00:21:20;26.10;52.10
32502;DHT22;18952;52.516;13.460;2022-07-21T00:23:55;26.10;52.40
32502;DHT22;18952;52.516;13.460;2022-07-21T00:26:32;26.00;52.40
32502;DHT22;18952;52.516;13.460;2022-07-21T00:29:00;26.00;52.50
32502;DHT22;18952;52.516;13.460;2022-07-21T00:31:31;26.00;52.60
32502;DHT22;18952;52.516;13.460;2022-07-21T00:34:00;25.90;52.70
32502;DHT22;18952;52.516;13.460;2022-07-21T00:36:37;25.90;52.80
32502;DHT22;18952;52.516;13.460;2022-07-21T00:39:04;25.80;52.90
32502;DHT22;18952;52.516;13.460;2022-07-21T00:41:36;25.80;52.80
32502;DHT22;18952;52.516;13.460;2022-07-21T00:44:04;25.80;53.10
32502;DHT22;18952;52.516;13.460;2022-07-21T00:46:33;25.80;53.10
32502;DHT22;18952;52.516;13.460;2022-07-21T00:49:04;25.70;53.10
32502;DHT22;18952;52.516;13.460;2022-07-21T00:51:40;25.70;53.30
32502;DHT22;18952;52.516;13.460;2022-07-21T00:54:09;25.70;53.20
32502;DHT22;18952;52.516;13.460;2022-07-21T00:56:41;25.60;53.20
32502;DHT22;18952;52.516;13.460;2022-07-21T00:59:10;25.60;53.50
32502;DHT22;18952;52.516;13.460;2022-07-21T01:01:52;25.60;53.50
32502;DHT22;18952;52.516;13.460;2022-07-21T01:04:21;25.50;53.40
32502;DHT22;18952;52.516;13.460;2022-07-21T01:06:50;25.50;53.50
32502;DHT22;18952;52.516;13.460;2022-07-21T01:09:20;25.50;53.60
32502;DHT22;18952;52.516;13.460;2022-07-21T01:11:59;25.50;53.60
32502;DHT22;18952;52.516;13.460;2022-07-21T01:14:31;25.50;53.70
32502;DHT22;18952;52.516;13.460;2022-07-21T01:17:05;25.50;53.80
32502;DHT22;18952;52.516;13.460;2022-07-21T01:19:40;25.40;54.00
32502;DHT22;18952;52.516;13.460;2022-07-21T01:22:08;25.40;54.30
32502;DHT22;18952;52.516;13.460;2022-07-21T01:24:40;25.40;54.10
32502;DHT22;18952;52.516;13.460;2022-07-21T01:27:09;25.40;54.30
32502;DHT22;18952;52.516;13.460;2022-07-21T01:29:38;25.30;54.30
32502;DHT22;18952;52.516;13.460;2022-07-21T01:32:09;25.30;54.30
32502;DHT22;18952;52.516;13.460;2022-07-21T01:34:39;25.30;54.50
32502;DHT22;18952;52.516;13.460;2022-07-21T01:37:07;25.30;54.50
32502;DHT22;18952;52.516;13.460;2022-07-21T01:39:43;25.30;54.60
32502;DHT22;18952;52.516;13.460;2022-07-21T01:42:13;25.20;54.70
32502;DHT22;18952;52.516;13.460;2022-07-21T01:44:50;25.30;54.60
32502;DHT22;18952;52.516;13.460;2022-07-21T01:47:21;25.20;54.60
32502;DHT22;18952;52.516;13.460;2022-07-21T01:49:48;25.30;54.70
32502;DHT22;18952;52.516;13.460;2022-07-21T01:52:17;25.20;55.00
32502;DHT22;18952;52.516;13.460;2022-07-21T01:54:49;25.20;55.00
32502;DHT22;18952;52.516;13.460;2022-07-21T01:57:19;25.20;55.00
32502;DHT22;18952;52.516;13.460;2022-07-21T01:59:47;25.10;55.10
32502;DHT22;18952;52.516;13.460;2022-07-21T02:02:18;25.00;55.20
32502;DHT22;18952;52.516;13.460;2022-07-21T02:04:55;25.10;55.30
32502;DHT22;18952;52.516;13.460;2022-07-21T02:07:23;25.00;55.60
32502;DHT22;18952;52.516;13.460;2022-07-21T02:09:55;25.00;55.70
32502;DHT22;18952;52.516;13.460;2022-07-21T02:12:26;24.90;55.50
32502;DHT22;18952;52.516;13.460;2022-07-21T02:14:54;24.90;55.70
32502;DHT22;18952;52.516;13.460;2022-07-21T02:17:23;24.90;55.80
32502;DHT22;18952;52.516;13.460;2022-07-21T02:19:52;24.90;55.90
32502;DHT22;18952;52.516;13.460;2022-07-21T02:22:21;24.80;56.20
32502;DHT22;18952;52.516;13.460;2022-07-21T02:24:49;24.80;56.10
32502;DHT22;18952;52.516;13.460;2022-07-21T02:27:20;24.80;56.00
32502;DHT22;18952;52.516;13.460;2022-07-21T02:29:51;24.80;56.40
32502;DHT22;18952;52.516;13.460;2022-07-21T02:32:22;24.70;56.20
32502;DHT22;18952;52.516;13.460;2022-07-21T02:34:57;24.80;56.40
32502;DHT22;18952;52.516;13.460;2022-07-21T02:37:28;24.70;56.30
32502;DHT22;18952;52.516;13.460;2022-07-21T02:39:58;24.70;57.40
32502;DHT22;18952;52.516;13.460;2022-07-21T02:42:27;24.70;56.90
32502;DHT22;18952;52.516;13.460;2022-07-21T02:44:57;24.60;56.70
32502;DHT22;18952;52.516;13.460;2022-07-21T02:47:28;24.60;56.80
32502;DHT22;18952;52.516;13.460;2022-07-21T02:49:56;24.60;57.00
32502;DHT22;18952;52.516;13.460;2022-07-21T02:52:32;24.60;57.10
32502;DHT22;18952;52.516;13.460;2022-07-21T02:55:10;24.50;57.20
32502;DHT22;18952;52.516;13.460;2022-07-21T02:57:39;24.40;57.60
32502;DHT22;18952;52.516;13.460;2022-07-21T03:00:15;24.40;57.60
32502;DHT22;18952;52.516;13.460;2022-07-21T03:02:46;24.40;57.60
32502;DHT22;18952;52.516;13.460;2022-07-21T03:05:20;24.40;57.90
32502;DHT22;18952;52.516;13.460;2022-07-21T03:07:52;24.40;57.70
32502;DHT22;18952;52.516;13.460;2022-07-21T03:10:24;24.40;57.80
32502;DHT22;18952;52.516;13.460;2022-07-21T03:12:59;24.30;57.90
32502;DHT22;18952;52.516;13.460;2022-07-21T03:15:29;24.40;57.90
32502;DHT22;18952;52.516;13.460;2022-07-21T03:17:59;24.40;58.40
32502;DHT22;18952;52.516;13.460;2022-07-21T03:20:34;24.30;58.10
32502;DHT22;18952;52.516;13.460;2022-07-21T03:23:03;24.30;58.40
32502;DHT22;18952;52.516;13.460;2022-07-21T03:25:39;24.30;58.30
32502;DHT22;18952;52.516;13.460;2022-07-21T03:28:06;24.30;58.40
32502;DHT22;18952;52.516;13.460;2022-07-21T03:30:38;24.30;58.60
32502;DHT22;18952;52.516;13.460;2022-07-21T03:33:17;24.20;58.50
32502;DHT22;18952;52.516;13.460;2022-07-21T03:35:44;24.30;58.50
32502;DHT22;18952;52.516;13.460;2022-07-21T03:38:15;24.20;58.70
32502;DHT22;18952;52.516;13.460;2022-07-21T03:40:43;24.20;58.70
32502;DHT22;18952;52.516;13.460;2022-07-21T03:43:25;24.20;58.70
32502;DHT22;18952;52.516;13.460;2022-07-21T03:45:55;24.20;58.80
32502;DHT22;18952;52.516;13.460;2022-07-21T03:48:30;24.30;58.90
32502;DHT22;18952;52.516;13.460;2022-07-21T03:51:01;24.20;59.30
32502;DHT22;18952;52.516;13.460;2022-07-21T03:53:32;24.20;59.40
32502;DHT22;18952;52.516;13.460;2022-07-21T03:56:01;24.10;59.60
32502;DHT22;18952;52.516;13.460;2022-07-21T03:58:31;24.10;59.30
32502;DHT22;18952;52.516;13.460;2022-07-21T04:01:02;24.20;59.20
32502;DHT22;18952;52.516;13.460;2022-07-21T04:03:40;24.20;59.30
32502;DHT22;18952;52.516;13.460;2022-07-21T04:06:09;24.10;59.30
32502;DHT22;18952;52.516;13.460;2022-07-21T04:08:46;24.10;59.30
32502;DHT22;18952;52.516;13.460;2022-07-21T04:11:22;24.10;59.20
32502;DHT22;18952;52.516;13.460;2022-07-21T04:13:52;24.20;59.20
32502;DHT22;18952;52.516;13.460;2022-07-21T04:16:22;24.20;59.40
32502;DHT22;18952;52.516;13.460;2022-07-21T04:18:52;24.10;59.60
32502;DHT22;18952;52.516;13.460;2022-07-21T04:21:21;24.20;59.60
32502;DHT22;18952;52.516;13.460;2022-07-21T04:23:52;24.10;59.90
32502;DHT22;18952;52.516;13.460;2022-07-21T04:26:19;24.10;59.90
32502;DHT22;18952;52.516;13.460;2022-07-21T04:28:49;24.10;60.00
32502;DHT22;18952;52.516;13.460;2022-07-21T04:31:25;24.00;60.30
32502;DHT22;18952;52.516;13.460;2022-07-21T04:34:01;24.00;60.40
32502;DHT22;18952;52.516;13.460;2022-07-21T04:36:29;24.10;60.40
32502;DHT22;18952;52.516;13.460;2022-07-21T04:38:56;24.00;60.80
32502;DHT22;18952;52.516;13.460;2022-07-21T04:41:26;24.10;60.80
32502;DHT22;18952;52.516;13.460;2022-07-21T04:43:55;24.00;60.60
32502;DHT22;18952;52.516;13.460;2022-07-21T04:46:32;24.00;60.80
32502;DHT22;18952;52.516;13.460;2022-07-21T04:49:03;24.10;61.50
32502;DHT22;18952;52.516;13.460;2022-07-21T04:51:31;24.10;61.50
32502;DHT22;18952;52.516;13.460;2022-07-21T04:54:06;24.00;61.30
32502;DHT22;18952;52.516;13.460;2022-07-21T04:56:35;24.00;61.50
32502;DHT22;18952;52.516;13.460;2022-07-21T04:59:05;23.90;61.70
32502;DHT22;18952;52.516;13.460;2022-07-21T05:01:35;23.90;61.70
32502;DHT22;18952;52.516;13.460;2022-07-21T05:04:04;23.90;61.70
32502;DHT22;18952;52.516;13.460;2022-07-21T05:06:35;24.00;61.80
32502;DHT22;18952;52.516;13.460;2022-07-21T05:09:05;24.00;61.90
32502;DHT22;18952;52.516;13.460;2022-07-21T05:11:35;23.90;62.00
32502;DHT22;18952;52.516;13.460;2022-07-21T05:14:05;23.90;62.00
32502;DHT22;18952;52.516;13.460;2022-07-21T05:16:43;23.90;62.80
32502;DHT22;18952;52.516;13.460;2022-07-21T05:19:19;23.80;63.70
32502;DHT22;18952;52.516;13.460;2022-07-21T05:21:54;23.70;64.20
32502;DHT22;18952;52.516;13.460;2022-07-21T05:24:24;23.70;65.20
32502;DHT22;18952;52.516;13.460;2022-07-21T05:26:55;23.60;65.20
32502;DHT22;18952;52.516;13.460;2022-07-21T05:29:25;23.60;65.10
32502;DHT22;18952;52.516;13.460;2022-07-21T05:31:57;23.70;65.10
32502;DHT22;18952;52.516;13.460;2022-07-21T05:34:32;23.60;65.50
32502;DHT22;18952;52.516;13.460;2022-07-21T05:37:03;23.60;66.30
32502;DHT22;18952;52.516;13.460;2022-07-21T05:39:32;23.60;66.50
32502;DHT22;18952;52.516;13.460;2022-07-21T05:42:02;23.60;66.70
32502;DHT22;18952;52.516;13.460;2022-07-21T05:44:30;23.60;66.80
32502;DHT22;18952;52.516;13.460;2022-07-21T05:47:01;23.70;67.20
32502;DHT22;18952;52.516;13.460;2022-07-21T05:49:32;23.60;68.00
32502;DHT22;18952;52.516;13.460;2022-07-21T05:52:09;23.50;68.30
32502;DHT22;18952;52.516;13.460;2022-07-21T05:54:36;23.50;68.20
32502;DHT22;18952;52.516;13.460;2022-07-21T05:57:07;23.40;69.10
32502;DHT22;18952;52.516;13.460;2022-07-21T05:59:34;23.30;69.70
32502;DHT22;18952;52.516;13.460;2022-07-21T06:02:07;23.30;69.90
32502;DHT22;18952;52.516;13.460;2022-07-21T06:04:43;23.30;69.70
32502;DHT22;18952;52.516;13.460;2022-07-21T06:07:14;23.40;69.70
32502;DHT22;18952;52.516;13.460;2022-07-21T06:09:50;23.40;69.50
32502;DHT22;18952;52.516;13.460;2022-07-21T06:12:19;23.50;69.80
32502;DHT22;18952;52.516;13.460;2022-07-21T06:14:48;23.40;70.40
32502;DHT22;18952;52.516;13.460;2022-07-21T06:17:24;23.20;70.70
32502;DHT22;18952;52.516;13.460;2022-07-21T06:19:59;23.10;71.40
32502;DHT22;18952;52.516;13.460;2022-07-21T06:22:29;23.10;71.60
32502;DHT22;18952;52.516;13.460;2022-07-21T06:24:59;23.10;71.50
32502;DHT22;18952;52.516;13.460;2022-07-21T06:27:28;23.10;71.80
32502;DHT22;18952;52.516;13.460;2022-07-21T06:29:56;23.10;71.50
32502;DHT22;18952;52.516;13.460;2022-07-21T06:32:26;23.10;72.00
32502;DHT22;18952;52.516;13.460;2022-07-21T06:35:08;23.10;72.10
32502;DHT22;18952;52.516;13.460;2022-07-21T06:37:36;23.00;72.80
32502;DHT22;18952;52.516;13.460;2022-07-21T06:40:05;22.90;73.40
32502;DHT22;18952;52.516;13.460;2022-07-21T06:42:34;23.10;73.40
32502;DHT22;18952;52.516;13.460;2022-07-21T06:45:02;23.00;73.70
32502;DHT22;18952;52.516;13.460;2022-07-21T06:47:32;22.90;73.90
32502;DHT22;18952;52.516;13.460;2022-07-21T06:50:02;22.80;75.00
32502;DHT22;18952;52.516;13.460;2022-07-21T06:52:37;22.70;74.70
32502;DHT22;18952;52.516;13.460;2022-07-21T06:55:06;22.90;75.10
32502;DHT22;18952;52.516;13.460;2022-07-21T06:57:37;23.00;74.90
32502;DHT22;18952;52.516;13.460;2022-07-21T07:00:07;23.10;75.00
32502;DHT22;18952;52.516;13.460;2022-07-21T07:02:34;23.10;74.90
32502;DHT22;18952;52.516;13.460;2022-07-21T07:05:06;23.20;74.70
32502;DHT22;18952;52.516;13.460;2022-07-21T07:07:35;23.30;74.10
32502;DHT22;18952;52.516;13.460;2022-07-21T07:10:12;23.30;75.00
32502;DHT22;18952;52.516;13.460;2022-07-21T07:12:43;23.10;75.20
32502;DHT22;18952;52.516;13.460;2022-07-21T07:15:42;23.10;75.50
32502;DHT22;18952;52.516;13.460;2022-07-21T07:18:13;23.10;75.20
32502;DHT22;18952;52.516;13.460;2022-07-21T07:20:42;23.10;76.10
32502;DHT22;18952;52.516;13.460;2022-07-21T07:23:16;23.20;75.60
32502;DHT22;18952;52.516;13.460;2022-07-21T07:25:49;23.30;75.50
32502;DHT22;18952;52.516;13.460;2022-07-21T07:28:16;23.40;75.50
32502;DHT22;18952;52.516;13.460;2022-07-21T07:30:47;23.50;75.70
32502;DHT22;18952;52.516;13.460;2022-07-21T07:33:14;23.40;75.20
32502;DHT22;18952;52.516;13.460;2022-07-21T07:35:44;23.50;75.30
32502;DHT22;18952;52.516;13.460;2022-07-21T07:38:14;23.50;75.90
32502;DHT22;18952;52.516;13.460;2022-07-21T07:40:48;23.50;76.10
32502;DHT22;18952;52.516;13.460;2022-07-21T07:43:27;23.40;76.00
32502;DHT22;18952;52.516;13.460;2022-07-21T07:45:58;23.60;76.20
32502;DHT22;18952;52.516;13.460;2022-07-21T07:48:26;23.70;75.60
32502;DHT22;18952;52.516;13.460;2022-07-21T07:50:56;23.80;75.40
32502;DHT22;18952;52.516;13.460;2022-07-21T07:53:26;23.90;74.70
32502;DHT22;18952;52.516;13.460;2022-07-21T07:55:53;24.00;74.70
32502;DHT22;18952;52.516;13.460;2022-07-21T07:58:21;24.00;74.60
32502;DHT22;18952;52.516;13.460;2022-07-21T08:00:53;24.10;74.60
32502;DHT22;18952;52.516;13.460;2022-07-21T08:03:25;24.20;74.60
32502;DHT22;18952;52.516;13.460;2022-07-21T08:05:56;24.10;75.00
32502;DHT22;18952;52.516;13.460;2022-07-21T08:08:31;24.20;74.50
32502;DHT22;18952;52.516;13.460;2022-07-21T08:10:59;24.10;74.90
32502;DHT22;18952;52.516;13.460;2022-07-21T08:13:29;24.20;74.90
32502;DHT22;18952;52.516;13.460;2022-07-21T08:15:56;24.50;74.30
32502;DHT22;18952;52.516;13.460;2022-07-21T08:18:26;24.40;74.40
32502;DHT22;18952;52.516;13.460;2022-07-21T08:20:53;24.50;74.00
32502;DHT22;18952;52.516;13.460;2022-07-21T08:23:21;24.60;73.90
32502;DHT22;18952;52.516;13.460;2022-07-21T08:25:55;24.70;74.00
32502;DHT22;18952;52.516;13.460;2022-07-21T08:28:26;24.90;73.40
32502;DHT22;18952;52.516;13.460;2022-07-21T08:30:55;25.10;73.00
32502;DHT22;18952;52.516;13.460;2022-07-21T08:33:31;25.10;72.60
32502;DHT22;18952;52.516;13.460;2022-07-21T08:35:58;25.10;72.40
32502;DHT22;18952;52.516;13.460;2022-07-21T08:38:30;25.10;72.30
32502;DHT22;18952;52.516;13.460;2022-07-21T08:41:10;25.10;72.00
32502;DHT22;18952;52.516;13.460;2022-07-21T08:43:40;25.10;72.30
32502;DHT22;18952;52.516;13.460;2022-07-21T08:46:08;25.20;72.50
32502;DHT22;18952;52.516;13.460;2022-07-21T08:48:45;25.40;72.10
32502;DHT22;18952;52.516;13.460;2022-07-21T08:51:22;25.60;71.70
32502;DHT22;18952;52.516;13.460;2022-07-21T08:53:53;25.70;71.30
32502;DHT22;18952;52.516;13.460;2022-07-21T08:56:24;25.70;70.80
32502;DHT22;18952;52.516;13.460;2022-07-21T08:58:54;25.80;71.00
32502;DHT22;18952;52.516;13.460;2022-07-21T09:01:38;25.80;71.30
32502;DHT22;18952;52.516;13.460;2022-07-21T09:04:29;25.80;71.20
32502;DHT22;18952;52.516;13.460;2022-07-21T09:07:08;25.70;70.70
32502;DHT22;18952;52.516;13.460;2022-07-21T09:09:55;25.70;70.50
32502;DHT22;18952;52.516;13.460;2022-07-21T09:12:54;25.70;70.10
32502;DHT22;18952;52.516;13.460;2022-07-21T09:15:27;25.80;69.60
32502;DHT22;18952;52.516;13.460;2022-07-21T09:18:14;25.80;69.40
32502;DHT22;18952;52.516;13.460;2022-07-21T09:20:51;26.00;69.40
32502;DHT22;18952;52.516;13.460;2022-07-21T09:23:24;26.00;68.50
32502;DHT22;18952;52.516;13.460;2022-07-21T09:26:00;26.20;68.00
32502;DHT22;18952;52.516;13.460;2022-07-21T09:28:35;26.10;68.00
32502;DHT22;18952;52.516;13.460;2022-07-21T09:31:12;26.10;67.80
32502;DHT22;18952;52.516;13.460;2022-07-21T09:33:48;26.10;67.60
32502;DHT22;18952;52.516;13.460;2022-07-21T09:36:20;26.20;68.00
32502;DHT22;18952;52.516;13.460;2022-07-21T09:38:52;26.20;67.80
32502;DHT22;18952;52.516;13.460;2022-07-21T09:41:32;26.20;67.90
32502;DHT22;18952;52.516;13.460;2022-07-21T09:44:02;26.30;67.60
32502;DHT22;18952;52.516;13.460;2022-07-21T09:46:38;26.40;67.50
32502;DHT22;18952;52.516;13.460;2022-07-21T09:49:12;26.40;67.40
32502;DHT22;18952;52.516;13.460;2022-07-21T09:54:53;26.60;67.00
32502;DHT22;18952;52.516;13.460;2022-07-21T09:57:38;26.70;66.60
32502;DHT22;18952;52.516;13.460;2022-07-21T10:00:09;26.70;66.70
32502;DHT22;18952;52.516;13.460;2022-07-21T10:02:47;26.80;66.40
32502;DHT22;18952;52.516;13.460;2022-07-21T10:05:31;27.00;66.20
32502;DHT22;18952;52.516;13.460;2022-07-21T10:08:04;27.30;65.50
32502;DHT22;18952;52.516;13.460;2022-07-21T10:10:36;27.30;64.50
32502;DHT22;18952;52.516;13.460;2022-07-21T10:13:35;27.40;64.30
32502;DHT22;18952;52.516;13.460;2022-07-21T10:16:03;27.40;64.30
32502;DHT22;18952;52.516;13.460;2022-07-21T10:19:05;27.50;64.00
32502;DHT22;18952;52.516;13.460;2022-07-21T10:24:33;27.70;63.90
32502;DHT22;18952;52.516;13.460;2022-07-21T10:27:11;27.80;64.50
32502;DHT22;18952;52.516;13.460;2022-07-21T10:29:51;27.90;63.50
32502;DHT22;18952;52.516;13.460;2022-07-21T10:32:34;27.90;63.50
32502;DHT22;18952;52.516;13.460;2022-07-21T10:35:26;28.00;63.40
32502;DHT22;18952;52.516;13.460;2022-07-21T10:38:01;27.90;63.60
32502;DHT22;18952;52.516;13.460;2022-07-21T10:40:37;27.90;63.30
32502;DHT22;18952;52.516;13.460;2022-07-21T10:45:42;27.80;63.30
32502;DHT22;18952;52.516;13.460;2022-07-21T10:51:11;27.50;63.90
32502;DHT22;18952;52.516;13.460;2022-07-21T10:53:38;27.50;63.90
32502;DHT22;18952;52.516;13.460;2022-07-21T10:56:25;27.50;64.10
32502;DHT22;18952;52.516;13.460;2022-07-21T10:58:54;27.40;63.70
32502;DHT22;18952;52.516;13.460;2022-07-21T11:01:23;27.20;64.10
32502;DHT22;18952;52.516;13.460;2022-07-21T11:04:13;27.30;63.90
32502;DHT22;18952;52.516;13.460;2022-07-21T11:06:43;27.30;63.70
32502;DHT22;18952;52.516;13.460;2022-07-21T11:09:20;27.40;63.80
32502;DHT22;18952;52.516;13.460;2022-07-21T11:12:06;27.50;63.60
32502;DHT22;18952;52.516;13.460;2022-07-21T11:14:44;27.50;63.90
32502;DHT22;18952;52.516;13.460;2022-07-21T11:17:30;27.40;64.20
32502;DHT22;18952;52.516;13.460;2022-07-21T11:20:00;27.50;64.10
32502;DHT22;18952;52.516;13.460;2022-07-21T11:22:30;27.40;64.70
32502;DHT22;18952;52.516;13.460;2022-07-21T11:25:10;27.50;64.20
32502;DHT22;18952;52.516;13.460;2022-07-21T11:27:41;27.70;63.70
32502;DHT22;18952;52.516;13.460;2022-07-21T11:30:10;27.90;63.40
32502;DHT22;18952;52.516;13.460;2022-07-21T11:32:39;28.10;62.80
32502;DHT22;18952;52.516;13.460;2022-07-21T11:35:15;28.10;62.00
32502;DHT22;18952;52.516;13.460;2022-07-21T11:37:52;28.10;62.00
32502;DHT22;18952;52.516;13.460;2022-07-21T11:40:20;28.20;61.90
32502;DHT22;18952;52.516;13.460;2022-07-21T11:42:53;28.20;61.60
32502;DHT22;18952;52.516;13.460;2022-07-21T11:45:30;28.10;61.90
32502;DHT22;18952;52.516;13.460;2022-07-21T11:48:01;28.00;62.20
32502;DHT22;18952;52.516;13.460;2022-07-21T11:50:38;28.00;61.80
32502;DHT22;18952;52.516;13.460;2022-07-21T11:53:13;27.90;62.20
32502;DHT22;18952;52.516;13.460;2022-07-21T11:55:43;27.80;62.60
32502;DHT22;18952;52.516;13.460;2022-07-21T11:58:14;27.80;62.70
32502;DHT22;18952;52.516;13.460;2022-07-21T12:00:43;28.00;62.30
32502;DHT22;18952;52.516;13.460;2022-07-21T12:03:19;27.90;62.40
32502;DHT22;18952;52.516;13.460;2022-07-21T12:05:48;27.90;62.70
32502;DHT22;18952;52.516;13.460;2022-07-21T12:08:22;27.80;62.90
32502;DHT22;18952;52.516;13.460;2022-07-21T12:10:51;27.70;63.30
32502;DHT22;18952;52.516;13.460;2022-07-21T12:13:21;27.60;63.60
32502;DHT22;18952;52.516;13.460;2022-07-21T12:15:49;27.60;63.70
32502;DHT22;18952;52.516;13.460;2022-07-21T12:18:22;27.50;64.10
32502;DHT22;18952;52.516;13.460;2022-07-21T12:21:05;27.40;63.80
32502;DHT22;18952;52.516;13.460;2022-07-21T12:23:36;27.30;64.30
32502;DHT22;18952;52.516;13.460;2022-07-21T12:26:25;27.00;64.50
32502;DHT22;18952;52.516;13.460;2022-07-21T12:28:56;26.90;65.00
32502;DHT22;18952;52.516;13.460;2022-07-21T12:31:26;26.80;65.20
32502;DHT22;18952;52.516;13.460;2022-07-21T12:33:56;26.80;65.40
32502;DHT22;18952;52.516;13.460;2022-07-21T12:36:43;26.70;65.40
32502;DHT22;18952;52.516;13.460;2022-07-21T12:39:27;26.60;65.70
32502;DHT22;18952;52.516;13.460;2022-07-21T12:41:58;26.50;65.90
32502;DHT22;18952;52.516;13.460;2022-07-21T12:44:39;26.40;66.30
32502;DHT22;18952;52.516;13.460;2022-07-21T12:47:21;26.50;66.60
32502;DHT22;18952;52.516;13.460;2022-07-21T12:52:42;26.20;70.50
32502;DHT22;18952;52.516;13.460;2022-07-21T12:55:11;26.30;70.40
32502;DHT22;18952;52.516;13.460;2022-07-21T12:57:41;26.40;68.70
32502;DHT22;18952;52.516;13.460;2022-07-21T13:00:11;26.40;68.50
32502;DHT22;18952;52.516;13.460;2022-07-21T13:02:52;26.40;68.80
32502;DHT22;18952;52.516;13.460;2022-07-21T13:05:25;26.40;68.80
32502;DHT22;18952;52.516;13.460;2022-07-21T13:07:57;26.30;69.00
32502;DHT22;18952;52.516;13.460;2022-07-21T13:10:28;26.40;69.70
32502;DHT22;18952;52.516;13.460;2022-07-21T13:12:55;26.30;70.00
32502;DHT22;18952;52.516;13.460;2022-07-21T13:15:25;26.20;71.20
32502;DHT22;18952;52.516;13.460;2022-07-21T13:17:54;26.20;71.60
32502;DHT22;18952;52.516;13.460;2022-07-21T13:20:22;26.00;72.50
32502;DHT22;18952;52.516;13.460;2022-07-21T13:22:50;26.00;72.70
32502;DHT22;18952;52.516;13.460;2022-07-21T13:25:19;25.80;73.90
32502;DHT22;18952;52.516;13.460;2022-07-21T13:27:49;25.50;75.30
32502;DHT22;18952;52.516;13.460;2022-07-21T13:30:20;25.40;80.20
32502;DHT22;18952;52.516;13.460;2022-07-21T13:32:55;25.30;81.00
32502;DHT22;18952;52.516;13.460;2022-07-21T13:35:26;25.10;82.60
32502;DHT22;18952;52.516;13.460;2022-07-21T13:38:07;25.00;83.00
32502;DHT22;18952;52.516;13.460;2022-07-21T13:40:37;24.90;85.20
32502;DHT22;18952;52.516;13.460;2022-07-21T13:43:31;24.70;89.30
32502;DHT22;18952;52.516;13.460;2022-07-21T13:46:09;24.70;90.80
32502;DHT22;18952;52.516;13.460;2022-07-21T13:48:36;24.60;92.00
32502;DHT22;18952;52.516;13.460;2022-07-21T13:51:14;24.40;96.40
32502;DHT22;18952;52.516;13.460;2022-07-21T13:53:45;24.40;99.90
32502;DHT22;18952;52.516;13.460;2022-07-21T13:56:24;24.30;99.90
32502;DHT22;18952;52.516;13.460;2022-07-21T13:58:52;24.20;99.90
32502;DHT22;18952;52.516;13.460;2022-07-21T14:01:19;24.30;99.90
32502;DHT22;18952;52.516;13.460;2022-07-21T14:03:50;24.30;99.90
32502;DHT22;18952;52.516;13.460;2022-07-21T14:06:28;24.10;99.90
32502;DHT22;18952;52.516;13.460;2022-07-21T14:08:57;24.00;99.90
32502;DHT22;18952;52.516;13.460;2022-07-21T14:11:28;24.00;99.90
32502;DHT22;18952;52.516;13.460;2022-07-21T14:14:09;24.00;99.90
32502;DHT22;18952;52.516;13.460;2022-07-21T14:16:48;24.10;99.90
32502;DHT22;18952;52.516;13.460;2022-07-21T14:19:16;24.10;99.90
32502;DHT22;18952;52.516;13.460;2022-07-21T14:21:45;24.20;99.90
32502;DHT22;18952;52.516;13.460;2022-07-21T14:24:14;24.20;99.90
32502;DHT22;18952;52.516;13.460;2022-07-21T14:26:52;24.40;99.90
32502;DHT22;18952;52.516;13.460;2022-07-21T14:29:21;24.30;99.90
32502;DHT22;18952;52.516;13.460;2022-07-21T14:31:52;24.40;99.90
32502;DHT22;18952;52.516;13.460;2022-07-21T14:34:19;24.60;99.90
32502;DHT22;18952;52.516;13.460;2022-07-21T14:36:50;24.80;99.90
32502;DHT22;18952;52.516;13.460;2022-07-21T14:39:34;25.20;99.90
32502;DHT22;18952;52.516;13.460;2022-07-21T14:42:06;25.20;99.90
32502;DHT22;18952;52.516;13.460;2022-07-21T14:44:36;25.30;99.90
32502;DHT22;18952;52.516;13.460;2022-07-21T14:47:06;25.50;99.90
32502;DHT22;18952;52.516;13.460;2022-07-21T14:49:35;25.80;99.90
32502;DHT22;18952;52.516;13.460;2022-07-21T14:52:04;26.00;99.90
32502;DHT22;18952;52.516;13.460;2022-07-21T14:54:37;26.20;99.90
32502;DHT22;18952;52.516;13.460;2022-07-21T14:57:12;26.30;99.90
32502;DHT22;18952;52.516;13.460;2022-07-21T14:59:42;26.60;99.90
32502;DHT22;18952;52.516;13.460;2022-07-21T15:02:10;27.10;99.90
32502;DHT22;18952;52.516;13.460;2022-07-21T15:04:47;27.70;99.90
32502;DHT22;18952;52.516;13.460;2022-07-21T15:07:17;28.10;98.00
32502;DHT22;18952;52.516;13.460;2022-07-21T15:10:08;28.40;96.90
32502;DHT22;18952;52.516;13.460;2022-07-21T15:12:36;28.60;95.50
32502;DHT22;18952;52.516;13.460;2022-07-21T15:15:07;28.50;95.40
32502;DHT22;18952;52.516;13.460;2022-07-21T15:17:35;28.30;95.10
32502;DHT22;18952;52.516;13.460;2022-07-21T15:20:03;27.90;95.20
32502;DHT22;18952;52.516;13.460;2022-07-21T15:22:50;27.80;95.40
32502;DHT22;18952;52.516;13.460;2022-07-21T15:25:21;27.60;95.50
32502;DHT22;18952;52.516;13.460;2022-07-21T15:27:54;27.30;95.50
32502;DHT22;18952;52.516;13.460;2022-07-21T15:30:24;27.00;96.20
32502;DHT22;18952;52.516;13.460;2022-07-21T15:32:54;26.90;96.50
32502;DHT22;18952;52.516;13.460;2022-07-21T15:35:24;26.70;97.00
32502;DHT22;18952;52.516;13.460;2022-07-21T15:38:01;26.50;97.40
32502;DHT22;18952;52.516;13.460;2022-07-21T15:40:43;26.50;97.50
32502;DHT22;18952;52.516;13.460;2022-07-21T15:43:12;26.80;97.40
32502;DHT22;18952;52.516;13.460;2022-07-21T15:45:48;27.10;96.50
32502;DHT22;18952;52.516;13.460;2022-07-21T15:48:19;27.30;95.70
32502;DHT22;18952;52.516;13.460;2022-07-21T15:50:49;27.60;95.00
32502;DHT22;18952;52.516;13.460;2022-07-21T15:53:27;27.90;94.30
32502;DHT22;18952;52.516;13.460;2022-07-21T15:56:21;28.00;93.40
32502;DHT22;18952;52.516;13.460;2022-07-21T15:58:49;27.80;93.10
32502;DHT22;18952;52.516;13.460;2022-07-21T16:01:19;27.60;93.20
32502;DHT22;18952;52.516;13.460;2022-07-21T16:03:50;27.40;93.20